Time;durP1;ratioP1;P1;durP2;ratioP2;P2;SDS_P1;SDS_P2;PMS_P1;PMS_P2;Temp;Humidity;BMP_temperature;BMP_pressure;BME280_temperature;BME280_humidity;BME280_pressure;Samples;Min_cycle;Max_cycle;Signal;HPM_P1;HPM_P2
2021/03/09 00:00:38;;;;;;;;;;;;;;;17.49;67.45;100896.53;5089235;28;1271;-70
2021/03/09 00:03:04;;;;;;;;;;;;;;;17.48;67.58;100903.59;5091031;28;1143;-71
2021/03/09 00:05:31;;;;;;;;;;;;;;;17.48;67.34;100902.72;5090458;28;1229;-71
2021/03/09 00:07:58;;;;;;;;;;;;;;;17.47;67.35;100903.66;5089466;28;1910;-70
2021/03/09 00:10:24;;;;;;;;;;;;;;;17.46;67.49;100902.81;5089306;28;1220;-70
2021/03/09 00:13:07;;;;;;;;;;;;;;;17.46;67.57;100901.97;5109944;28;1328;-70
2021/03/09 00:15:34;;;;;;;;;;;;;;;17.45;67.41;100900.25;5110398;28;1322;-72
2021/03/09 00:18:00;;;;;;;;;;;;;;;17.44;67.48;100902.03;5110063;28;1064;-72
2021/03/09 00:20:26;;;;;;;;;;;;;;;17.45;67.59;100893.19;5092233;28;1312;-71
2021/03/09 00:22:53;;;;;;;;;;;;;;;17.44;67.58;100893.28;5110849;28;996;-71
2021/03/09 00:25:19;;;;;;;;;;;;;;;17.42;67.65;100889.84;5110671;28;1228;-72
2021/03/09 00:27:45;;;;;;;;;;;;;;;17.44;67.58;100898.56;5110630;28;1982;-72
2021/03/09 00:30:11;;;;;;;;;;;;;;;17.42;67.56;100895.13;5110373;28;1270;-71
2021/03/09 00:32:38;;;;;;;;;;;;;;;17.42;67.73;100895.13;5110512;28;1064;-71
2021/03/09 00:35:04;;;;;;;;;;;;;;;17.40;67.65;100892.59;5110121;28;1326;-71
2021/03/09 00:37:30;;;;;;;;;;;;;;;17.40;67.65;100878.56;5110500;28;1058;-71
2021/03/09 00:39:57;;;;;;;;;;;;;;;17.41;67.69;100890.81;5092050;28;1708;-71
2021/03/09 00:42:23;;;;;;;;;;;;;;;17.40;67.82;100882.03;5110429;28;1244;-70
2021/03/09 00:44:49;;;;;;;;;;;;;;;17.39;67.95;100885.59;5092100;28;941;-70
2021/03/09 00:47:15;;;;;;;;;;;;;;;17.38;67.84;100881.28;5110179;28;1906;-72
2021/03/09 00:49:42;;;;;;;;;;;;;;;17.38;67.84;100880.41;5110240;28;931;-72
2021/03/09 00:52:08;;;;;;;;;;;;;;;17.38;67.80;100886.53;5091803;28;1208;-71
2021/03/09 00:54:37;;;;;;;;;;;;;;;17.37;67.81;100894.50;5092043;28;1228;-73
2021/03/09 00:57:04;;;;;;;;;;;;;;;17.36;67.99;100896.28;5091606;28;1313;-73
2021/03/09 00:59:30;;;;;;;;;;;;;;;17.38;67.94;100898.84;5074696;28;1279;-71
2021/03/09 01:01:56;;;;;;;;;;;;;;;17.35;67.70;100897.22;5107701;28;1616;-72
2021/03/09 01:04:23;;;;;;;;;;;;;;;17.35;67.63;100893.75;5110006;28;1255;-73
2021/03/09 01:06:49;;;;;;;;;;;;;;;17.34;67.96;100897.28;5085693;28;1212;-72
2021/03/09 01:09:15;;;;;;;;;;;;;;;17.34;67.93;100894.66;5089719;28;1906;-72
2021/03/09 01:11:41;;;;;;;;;;;;;;;17.33;67.90;100892.94;5089621;28;1387;-73
2021/03/09 01:14:08;;;;;;;;;;;;;;;17.33;68.06;100896.44;5089896;28;1141;-73
2021/03/09 01:16:34;;;;;;;;;;;;;;;17.33;67.96;100898.22;5089449;28;1229;-71
2021/03/09 01:19:01;;;;;;;;;;;;;;;17.33;67.89;100898.22;5089393;28;1015;-72
2021/03/09 01:21:30;;;;;;;;;;;;;;;17.32;67.77;100897.38;5089250;28;1244;-71
2021/03/09 01:23:56;;;;;;;;;;;;;;;17.26;67.90;100895.03;5088768;28;1225;-71
2021/03/09 01:26:23;;;;;;;;;;;;;;;17.32;68.05;100907.06;5088757;28;1314;-71
2021/03/09 01:28:49;;;;;;;;;;;;;;;17.30;67.86;100904.47;5087897;28;1983;-73
2021/03/09 01:31:15;;;;;;;;;;;;;;;17.30;67.93;100907.13;5089588;28;1228;-73
2021/03/09 01:33:41;;;;;;;;;;;;;;;17.30;67.95;100901.00;5089479;28;1193;-73
2021/03/09 01:36:07;;;;;;;;;;;;;;;17.29;67.92;100900.16;5087560;28;1240;-73
2021/03/09 01:38:34;;;;;;;;;;;;;;;17.29;67.94;100905.44;5089417;28;976;-73
2021/03/09 01:41:01;;;;;;;;;;;;;;;17.30;67.94;100901.84;5089111;28;1281;-73
2021/03/09 01:43:27;;;;;;;;;;;;;;;17.30;68.06;100903.63;5089309;28;1056;-72
2021/03/09 01:45:53;;;;;;;;;;;;;;;17.29;67.76;100899.31;5088291;28;1228;-72
2021/03/09 01:48:40;;;;;;;;;;;;;;;17.28;67.88;100897.59;5089183;28;1918;-72
2021/03/09 01:51:07;;;;;;;;;;;;;;;17.28;67.91;100898.44;5088988;28;1259;-72
2021/03/09 01:53:33;;;;;;;;;;;;;;;17.26;67.93;100899.44;5087577;28;1176;-73
2021/03/09 01:56:00;;;;;;;;;;;;;;;17.26;67.89;100889.78;5104311;28;1326;-72
2021/03/09 01:58:28;;;;;;;;;;;;;;;17.27;67.86;100893.22;5089000;28;1021;-73
2021/03/09 02:00:54;;;;;;;;;;;;;;;17.26;68.11;100894.19;5070858;28;1359;-72
2021/03/09 02:03:21;;;;;;;;;;;;;;;17.25;68.05;100890.69;5089406;28;1105;-73
2021/03/09 02:05:47;;;;;;;;;;;;;;;17.25;67.90;100892.47;5070407;28;1369;-72
2021/03/09 02:08:14;;;;;;;;;;;;;;;17.25;68.04;100887.19;5088562;28;1925;-73
2021/03/09 02:10:40;;;;;;;;;;;;;;;17.25;68.01;100890.69;5088448;28;1177;-71
2021/03/09 02:13:06;;;;;;;;;;;;;;;17.24;68.00;100888.13;5070956;28;1594;-71
2021/03/09 02:15:51;;;;;;;;;;;;;;;17.23;67.99;100887.28;5070393;28;1431;-72
2021/03/09 02:18:20;;;;;;;;;;;;;;;17.25;67.83;100881.94;5070824;28;1077;-72
2021/03/09 02:21:05;;;;;;;;;;;;;;;17.24;68.23;100885.50;5070327;28;1335;-71
2021/03/09 02:23:35;;;;;;;;;;;;;;;17.24;68.11;100877.59;5088574;28;1135;-72
2021/03/09 02:26:01;;;;;;;;;;;;;;;17.23;68.06;100875.91;5070435;28;1315;-71
2021/03/09 02:28:39;;;;;;;;;;;;;;;17.22;68.04;100875.03;5088805;28;1898;-72
2021/03/09 02:31:07;;;;;;;;;;;;;;;17.22;68.13;100871.56;5090440;28;1173;-71
2021/03/09 02:33:35;;;;;;;;;;;;;;;17.15;67.90;100860.47;5092770;28;1277;-71
2021/03/09 02:36:03;;;;;;;;;;;;;;;17.22;68.15;100871.56;5074331;28;1323;-71
2021/03/09 02:38:36;;;;;;;;;;;;;;;17.21;68.11;100865.44;5092818;28;1056;-72
2021/03/09 02:41:03;;;;;;;;;;;;;;;17.20;68.17;100868.16;5091887;28;1436;-71
2021/03/09 02:43:30;;;;;;;;;;;;;;;17.19;67.97;100867.28;5092635;28;1136;-71
2021/03/09 02:45:58;;;;;;;;;;;;;;;17.21;68.09;100864.56;5074474;28;1343;-70
2021/03/09 02:48:26;;;;;;;;;;;;;;;17.20;68.09;100865.53;5093903;28;1992;-70
2021/03/09 02:50:54;;;;;;;;;;;;;;;17.18;67.97;100859.47;5080772;28;1165;-70
2021/03/09 02:53:22;;;;;;;;;;;;;;;17.19;68.07;100866.44;5097150;28;1385;-70
2021/03/09 02:55:48;;;;;;;;;;;;;;;17.19;67.99;100861.19;5097931;28;1216;-69
2021/03/09 02:58:18;;;;;;;;;;;;;;;17.19;67.83;100861.19;5080011;28;1387;-69
2021/03/09 03:00:44;;;;;;;;;;;;;;;17.18;68.05;100859.47;5093262;28;1297;-71
2021/03/09 03:03:13;;;;;;;;;;;;;;;17.16;68.00;100856.06;5092481;28;1007;-68
2021/03/09 03:05:41;;;;;;;;;;;;;;;17.18;68.11;100843.66;5073347;28;1219;-69
2021/03/09 03:08:09;;;;;;;;;;;;;;;17.17;67.87;100852.50;5073557;28;1903;-71
2021/03/09 03:10:37;;;;;;;;;;;;;;;17.15;68.20;100852.56;5073939;28;1337;-72
2021/03/09 03:13:06;;;;;;;;;;;;;;;17.16;67.95;100848.16;5092105;28;1556;-73
2021/03/09 03:15:33;;;;;;;;;;;;;;;17.14;67.94;100848.25;5073698;28;1354;-73
2021/03/09 03:18:03;;;;;;;;;;;;;;;17.14;67.98;100844.75;5091542;28;1153;-72
2021/03/09 03:20:30;;;;;;;;;;;;;;;17.14;67.97;100839.50;5091226;28;1240;-72
2021/03/09 03:22:57;;;;;;;;;;;;;;;17.14;68.05;100842.13;5072514;28;867;-72
2021/03/09 03:25:25;;;;;;;;;;;;;;;17.13;67.63;100835.16;5091635;28;1225;-71
2021/03/09 03:27:52;;;;;;;;;;;;;;;17.13;67.97;100829.88;5073410;28;1905;-72
2021/03/09 03:30:19;;;;;;;;;;;;;;;17.13;67.92;100835.16;5091454;28;1303;-71
2021/03/09 03:32:45;;;;;;;;;;;;;;;17.12;67.84;100836.91;5091381;28;1188;-71
2021/03/09 03:35:13;;;;;;;;;;;;;;;17.11;67.82;100847.53;5091319;28;1219;-72
2021/03/09 03:37:40;;;;;;;;;;;;;;;17.13;67.91;100835.16;5073126;28;1545;-71
2021/03/09 03:40:10;;;;;;;;;;;;;;;17.11;68.09;100840.50;5091269;28;1220;-71
2021/03/09 03:42:37;;;;;;;;;;;;;;;17.11;67.66;100837.00;5090886;28;1162;-69
2021/03/09 03:45:03;;;;;;;;;;;;;;;17.11;67.71;100837.88;5091058;28;1195;-69
2021/03/09 03:47:30;;;;;;;;;;;;;;;17.11;67.87;100842.28;5072823;28;1914;-70
2021/03/09 03:50:10;;;;;;;;;;;;;;;17.10;67.76;100845.81;5057901;28;1292;-69
2021/03/09 03:52:37;;;;;;;;;;;;;;;17.10;67.74;100848.47;5091194;28;1120;-69
2021/03/09 03:55:03;;;;;;;;;;;;;;;17.09;67.87;100849.38;5072728;28;1250;-70
2021/03/09 03:57:38;;;;;;;;;;;;;;;17.10;67.77;100857.22;5072661;28;1262;-69
2021/03/09 04:00:07;;;;;;;;;;;;;;;17.08;67.96;100850.31;5091045;28;1368;-72
2021/03/09 04:02:35;;;;;;;;;;;;;;;17.08;67.89;100845.06;5090447;28;890;-70
2021/03/09 04:05:04;;;;;;;;;;;;;;;17.10;67.82;100859.00;5090535;28;1033;-68
2021/03/09 04:07:31;;;;;;;;;;;;;;;17.09;67.97;100846.75;5072510;28;1914;-69
2021/03/09 04:09:57;;;;;;;;;;;;;;;17.08;67.94;100845.91;5055742;28;1199;-69
2021/03/09 04:12:27;;;;;;;;;;;;;;;17.09;67.98;100844.09;5090450;28;1680;-69
2021/03/09 04:14:55;;;;;;;;;;;;;;;17.06;67.78;100845.13;5072300;28;1142;-68
2021/03/09 04:17:22;;;;;;;;;;;;;;;17.08;67.78;100842.44;5090471;28;1252;-70
2021/03/09 04:19:49;;;;;;;;;;;;;;;17.06;67.73;100854.78;5090316;28;763;-70
2021/03/09 04:22:16;;;;;;;;;;;;;;;17.05;67.82;100845.22;5090461;28;1242;-71
2021/03/09 04:24:43;;;;;;;;;;;;;;;17.06;67.80;100852.16;5071755;28;1217;-70
2021/03/09 04:27:20;;;;;;;;;;;;;;;17.05;67.73;100856.59;5071881;28;1240;-70
2021/03/09 04:29:54;;;;;;;;;;;;;;;17.07;67.78;100845.97;5090061;28;1977;-70
2021/03/09 04:32:22;;;;;;;;;;;;;;;17.04;67.84;100843.50;5089900;28;1299;-70
2021/03/09 04:34:49;;;;;;;;;;;;;;;17.02;67.96;100848.84;5090020;28;751;-70
2021/03/09 04:37:34;;;;;;;;;;;;;;;17.02;67.74;100840.94;5090088;28;1067;-69
2021/03/09 04:40:01;;;;;;;;;;;;;;;17.01;67.71;100846.28;5088519;28;1480;-70
2021/03/09 04:42:27;;;;;;;;;;;;;;;17.02;67.75;100853.25;5071852;28;1284;-69
2021/03/09 04:44:54;;;;;;;;;;;;;;;17.00;67.69;100850.69;5090277;28;801;-71
2021/03/09 04:47:20;;;;;;;;;;;;;;;17.02;67.73;100853.25;5072131;28;1303;-71
2021/03/09 04:49:46;;;;;;;;;;;;;;;16.99;67.55;100849.00;5090117;28;1902;-71
2021/03/09 04:52:13;;;;;;;;;;;;;;;17.00;67.62;100849.81;5089296;28;1322;-71
2021/03/09 04:54:40;;;;;;;;;;;;;;;17.01;67.69;100851.53;5089442;28;900;-71
2021/03/09 04:57:06;;;;;;;;;;;;;;;16.99;67.75;100850.75;5071653;28;1275;-71
2021/03/09 04:59:32;;;;;;;;;;;;;;;16.99;67.94;100850.75;5093589;28;1139;-70
2021/03/09 05:01:58;;;;;;;;;;;;;;;17.01;67.74;100860.28;5096978;28;1315;-71
2021/03/09 05:04:25;;;;;;;;;;;;;;;16.98;67.68;100856.94;5095209;28;719;-70
2021/03/09 05:06:51;;;;;;;;;;;;;;;16.98;67.55;100854.31;5078170;28;1229;-71
2021/03/09 05:09:17;;;;;;;;;;;;;;;16.97;67.68;100855.22;5073948;28;1914;-71
2021/03/09 05:11:44;;;;;;;;;;;;;;;16.98;67.78;100863.06;5071123;28;1477;-71
2021/03/09 05:14:10;;;;;;;;;;;;;;;16.98;67.70;100862.22;5089966;28;1016;-72
2021/03/09 05:16:36;;;;;;;;;;;;;;;16.97;67.86;100873.66;5071268;28;1335;-71
2021/03/09 05:19:03;;;;;;;;;;;;;;;16.97;67.79;100873.66;5089784;28;1279;-70
2021/03/09 05:21:30;;;;;;;;;;;;;;;16.95;67.58;100868.47;5089703;28;1542;-70
2021/03/09 05:23:56;;;;;;;;;;;;;;;16.94;67.58;100867.63;5073695;28;1435;-70
2021/03/09 05:26:23;;;;;;;;;;;;;;;16.94;67.70;100870.25;5102743;28;1311;-71
2021/03/09 05:28:49;;;;;;;;;;;;;;;16.95;67.77;100871.09;5078723;28;1973;-69
2021/03/09 05:31:15;;;;;;;;;;;;;;;16.94;67.80;100870.25;5089249;28;1311;-70
2021/03/09 05:33:42;;;;;;;;;;;;;;;17.02;67.93;100864.63;5097497;28;988;-70
2021/03/09 05:36:08;;;;;;;;;;;;;;;17.05;67.32;100861.84;5077523;28;1485;-71
2021/03/09 05:38:34;;;;;;;;;;;;;;;16.99;67.46;100864.78;5089214;28;944;-69
2021/03/09 05:41:01;;;;;;;;;;;;;;;16.98;67.33;100862.22;5089415;28;1261;-69
2021/03/09 05:43:29;;;;;;;;;;;;;;;16.96;67.48;100861.44;5089153;28;968;-71
2021/03/09 05:45:56;;;;;;;;;;;;;;;16.95;67.42;100865.84;5101191;28;1267;-70
2021/03/09 05:48:23;;;;;;;;;;;;;;;16.98;67.37;100870.09;5109391;28;1914;-70
2021/03/09 05:50:49;;;;;;;;;;;;;;;16.96;67.44;100864.94;5109081;28;1326;-70
2021/03/09 05:53:15;;;;;;;;;;;;;;;16.97;67.46;100860.50;5109567;28;1041;-69
2021/03/09 05:55:41;;;;;;;;;;;;;;;16.93;67.11;100865.91;5109310;28;1334;-73
2021/03/09 05:58:08;;;;;;;;;;;;;;;16.94;67.30;100857.09;5109506;28;1045;-72
2021/03/09 06:00:34;;;;;;;;;;;;;;;16.94;67.25;100858.88;5109046;28;1224;-72
2021/03/09 06:03:01;;;;;;;;;;;;;;;16.94;67.45;100851.81;5109290;28;1033;-73
2021/03/09 06:05:28;;;;;;;;;;;;;;;16.93;67.31;100860.63;5109362;28;1334;-72
2021/03/09 06:07:54;;;;;;;;;;;;;;;16.95;67.19;100863.22;5093018;28;1933;-71
2021/03/09 06:10:22;;;;;;;;;;;;;;;16.91;67.41;100867.75;5093027;28;1194;-72
2021/03/09 06:12:48;;;;;;;;;;;;;;;16.91;66.98;100867.75;5093113;28;1599;-70
2021/03/09 06:15:15;;;;;;;;;;;;;;;16.94;67.14;100866.75;5092878;28;1240;-70
2021/03/09 06:17:42;;;;;;;;;;;;;;;16.93;67.04;100873.78;5092983;28;965;-73
2021/03/09 06:20:18;;;;;;;;;;;;;;;16.94;67.04;100866.75;5092764;28;1278;-68
2021/03/09 06:22:46;;;;;;;;;;;;;;;16.93;67.10;100870.34;5106924;28;1614;-68
2021/03/09 06:25:16;;;;;;;;;;;;;;;16.89;67.19;100872.25;5113026;28;1327;-68
2021/03/09 06:27:42;;;;;;;;;;;;;;;16.91;67.06;100877.44;5113224;28;1048;-68
2021/03/09 06:30:10;;;;;;;;;;;;;;;16.90;67.10;100887.09;5106155;28;1929;-71
2021/03/09 06:32:44;;;;;;;;;;;;;;;16.98;67.13;100886.75;5074066;28;1256;-70
2021/03/09 06:35:27;;;;;;;;;;;;;;;16.98;67.05;100899.03;5092408;28;1228;-73
2021/03/09 06:37:53;;;;;;;;;;;;;;;16.89;67.07;100890.66;5094432;28;1303;-73
2021/03/09 06:40:20;;;;;;;;;;;;;;;16.88;66.86;100894.22;5094498;28;1379;-73
2021/03/09 06:42:46;;;;;;;;;;;;;;;16.92;67.24;100898.44;5113001;28;1136;-73
2021/03/09 06:45:19;;;;;;;;;;;;;;;17.12;68.37;100901.88;5106171;28;1521;-73
2021/03/09 06:47:47;;;;;;;;;;;;;;;17.04;69.29;100899.63;5104646;28;1029;-71
2021/03/09 06:50:18;;;;;;;;;;;;;;;17.01;69.60;100901.53;5095480;28;1423;-71
2021/03/09 06:52:56;;;;;;;;;;;;;;;16.99;69.69;100901.63;5090822;28;1028;-73
2021/03/09 06:55:28;;;;;;;;;;;;;;;17.04;71.11;100896.13;5056360;28;1252;-75
2021/03/09 06:58:09;;;;;;;;;;;;;;;17.18;70.13;100904.22;5110894;28;956;-74
2021/03/09 07:00:35;;;;;;;;;;;;;;;17.18;70.98;100909.47;5112262;28;1216;-72
2021/03/09 07:03:01;;;;;;;;;;;;;;;17.06;70.06;100912.69;5112338;28;1130;-70
2021/03/09 07:05:28;;;;;;;;;;;;;;;17.13;71.25;100901.81;5105701;28;1402;-72
2021/03/09 07:08:23;;;;;;;;;;;;;;;17.14;70.06;100900.91;5082532;28;1901;-73
2021/03/09 07:10:49;;;;;;;;;;;;;;;17.07;69.71;100909.16;5072668;28;1248;-73
2021/03/09 07:13:17;;;;;;;;;;;;;;;17.00;69.75;100912.97;5074917;28;1547;-72
2021/03/09 07:15:44;;;;;;;;;;;;;;;17.06;70.29;100913.53;5090176;28;1216;-70
2021/03/09 07:18:12;;;;;;;;;;;;;;;17.06;69.59;100926.72;5090995;28;988;-72
2021/03/09 07:20:38;;;;;;;;;;;;;;;17.04;69.71;100925.94;5090968;28;1311;-71
2021/03/09 07:23:05;;;;;;;;;;;;;;;17.02;69.65;100926.94;5072323;28;1500;-69
2021/03/09 07:25:32;;;;;;;;;;;;;;;17.05;69.78;100929.44;5090748;28;1231;-72
2021/03/09 07:28:03;;;;;;;;;;;;;;;17.02;69.60;100925.16;5072577;28;1984;-71
2021/03/09 07:30:36;;;;;;;;;;;;;;;17.14;69.72;100927.22;5090257;28;1228;-78
2021/03/09 07:33:04;;;;;;;;;;;;;;;17.08;69.51;100926.66;5070380;28;1647;-78
2021/03/09 07:35:30;;;;;;;;;;;;;;;17.13;69.64;100936.03;5089700;28;1212;-74
2021/03/09 07:37:57;;;;;;;;;;;;;;;17.07;69.22;100946.00;5072434;28;1175;-73
2021/03/09 07:40:28;;;;;;;;;;;;;;;17.02;69.45;100948.00;5073221;28;1326;-77
2021/03/09 07:42:55;;;;;;;;;;;;;;;17.09;69.65;100958.16;5072736;28;1263;-71
2021/03/09 07:45:24;;;;;;;;;;;;;;;17.12;69.51;100960.63;5072386;28;1225;-75
2021/03/09 07:47:56;;;;;;;;;;;;;;;17.05;68.93;100963.63;5091084;28;1083;-75
2021/03/09 07:50:22;;;;;;;;;;;;;;;17.01;69.36;100967.31;5090854;28;1329;-74
2021/03/09 07:52:57;;;;;;;;;;;;;;;17.07;68.84;100965.28;5054430;28;1946;-68
2021/03/09 07:55:23;;;;;;;;;;;;;;;17.08;69.78;100976.66;5062731;28;1335;-68
2021/03/09 07:57:48;;;;;;;;;;;;;;;17.06;70.21;100970.59;5079442;28;1098;-68
2021/03/09 08:00:14;;;;;;;;;;;;;;;17.10;70.59;100982.69;5070897;28;1299;-69
2021/03/09 08:02:41;;;;;;;;;;;;;;;17.11;70.59;100987.03;5073180;28;1137;-70
2021/03/09 08:05:07;;;;;;;;;;;;;;;17.15;70.77;100991.22;5068355;28;1217;-72
2021/03/09 08:07:53;;;;;;;;;;;;;;;17.16;69.72;100987.66;5050563;28;934;-70
2021/03/09 08:10:27;;;;;;;;;;;;;;;17.20;68.79;100987.47;5076449;28;1915;-73
2021/03/09 08:12:54;;;;;;;;;;;;;;;17.33;69.08;100985.94;5088902;28;1478;-70
2021/03/09 08:15:20;;;;;;;;;;;;;;;17.37;67.26;100978.78;5071000;28;1256;-71
2021/03/09 08:17:47;;;;;;;;;;;;;;;17.33;66.60;100991.22;5089178;28;1057;-70
2021/03/09 08:20:32;;;;;;;;;;;;;;;17.34;66.89;101006.09;5088809;28;1315;-70
2021/03/09 08:23:28;;;;;;;;;;;;;;;17.33;66.37;100998.25;5089155;28;1019;-72
2021/03/09 08:25:54;;;;;;;;;;;;;;;17.42;66.69;101005.72;5089328;28;1220;-72
2021/03/09 08:28:34;;;;;;;;;;;;;;;17.49;66.08;101012.41;5087909;28;1906;-74
2021/03/09 08:31:27;;;;;;;;;;;;;;;17.62;66.63;101013.59;5070422;28;1229;-68
2021/03/09 08:34:13;;;;;;;;;;;;;;;17.55;65.03;101025.34;5085544;28;1602;-68
2021/03/09 08:36:40;;;;;;;;;;;;;;;17.40;63.96;101024.25;5107331;28;2333;-68
2021/03/09 08:41:39;;;;;;;;;;;;;;;17.27;63.60;101031.00;5090312;28;1397;-67
2021/03/09 08:47:06;;;;;;;;;;;;;;;17.22;63.41;101029.50;5088188;28;1295;-68
2021/03/09 08:49:42;;;;;;;;;;;;;;;17.18;63.21;101034.06;5105177;27;1406;-67
2021/03/09 08:52:09;;;;;;;;;;;;;;;17.14;63.33;101029.03;5105192;28;1173;-65
2021/03/09 08:54:37;;;;;;;;;;;;;;;17.12;63.34;101022.94;5103904;28;1091;-67
2021/03/09 08:57:13;;;;;;;;;;;;;;;17.09;63.08;101028.34;5105586;28;1234;-65
2021/03/09 08:59:41;;;;;;;;;;;;;;;17.05;63.02;101030.31;5105338;28;828;-66
2021/03/09 09:02:08;;;;;;;;;;;;;;;17.04;63.17;101027.72;5118503;28;1232;-68
2021/03/09 09:04:36;;;;;;;;;;;;;;;17.01;63.09;101025.22;5125137;28;853;-66
2021/03/09 09:07:16;;;;;;;;;;;;;;;17.00;62.97;101028.78;5125507;28;1250;-66
2021/03/09 09:09:42;;;;;;;;;;;;;;;16.96;62.68;101025.44;5106832;28;1254;-66
2021/03/09 09:12:21;;;;;;;;;;;;;;;16.96;62.92;101029.84;5123908;28;1313;-65
2021/03/09 09:15:10;;;;;;;;;;;;;;;16.93;62.83;101030.84;5125166;28;825;-65
2021/03/09 09:17:38;;;;;;;;;;;;;;;16.92;62.44;101030.00;5122737;28;1559;-66
2021/03/09 09:20:06;;;;;;;;;;;;;;;16.91;62.61;101038.78;5104865;28;770;-66
2021/03/09 09:22:33;;;;;;;;;;;;;;;16.91;62.33;101041.44;5103150;28;1610;-65
2021/03/09 09:25:04;;;;;;;;;;;;;;;16.87;62.57;101039.03;5103010;28;1314;-66
2021/03/09 09:27:40;;;;;;;;;;;;;;;16.86;62.36;101038.16;5104398;28;1946;-65
2021/03/09 09:30:08;;;;;;;;;;;;;;;16.79;62.17;101034.09;5104198;28;1247;-65
2021/03/09 09:32:48;;;;;;;;;;;;;;;16.84;62.26;101045.25;5103968;28;939;-66
2021/03/09 09:35:15;;;;;;;;;;;;;;;16.82;62.04;101047.09;5103135;28;1328;-65
2021/03/09 09:37:45;;;;;;;;;;;;;;;16.81;62.00;101042.75;5105032;28;1036;-66
2021/03/09 09:40:12;;;;;;;;;;;;;;;16.82;61.98;101046.25;5104604;28;1314;-66
2021/03/09 09:42:38;;;;;;;;;;;;;;;16.80;61.79;101043.69;5104752;28;1060;-66
2021/03/09 09:45:05;;;;;;;;;;;;;;;16.79;61.76;101049.88;5104672;28;1308;-66
2021/03/09 09:47:32;;;;;;;;;;;;;;;16.77;61.60;101043.81;5103842;28;1973;-66
2021/03/09 09:49:59;;;;;;;;;;;;;;;16.78;61.63;101040.25;5102454;28;1238;-66
2021/03/09 09:52:25;;;;;;;;;;;;;;;16.77;61.64;101035.94;5104168;28;1219;-66
2021/03/09 09:54:53;;;;;;;;;;;;;;;16.75;61.75;101039.53;5104147;28;718;-66
2021/03/09 09:57:19;;;;;;;;;;;;;;;16.75;61.33;101040.38;5102234;28;1319;-66
2021/03/09 09:59:45;;;;;;;;;;;;;;;16.74;61.67;101043.09;5097830;28;808;-67
2021/03/09 10:02:15;;;;;;;;;;;;;;;16.73;61.69;101044.88;5104173;28;1267;-66
2021/03/09 10:04:42;;;;;;;;;;;;;;;16.71;61.70;101044.09;5103129;28;1571;-66
2021/03/09 10:07:13;;;;;;;;;;;;;;;16.92;61.91;101048.41;5072492;28;1330;-65
2021/03/09 10:09:39;;;;;;;;;;;;;;;16.94;61.98;101035.16;5070680;28;1898;-65
2021/03/09 10:12:06;;;;;;;;;;;;;;;17.00;62.54;101039.28;5087688;28;1339;-68
2021/03/09 10:14:32;;;;;;;;;;;;;;;16.93;62.78;101039.56;5077651;28;917;-68
2021/03/09 10:17:02;;;;;;;;;;;;;;;16.94;63.40;101046.56;5068422;28;1319;-68
2021/03/09 10:19:37;;;;;;;;;;;;;;;16.98;63.74;101041.16;5088261;28;1554;-67
2021/03/09 10:22:15;;;;;;;;;;;;;;;17.05;64.12;101040.81;5082867;28;1520;-67
2021/03/09 10:24:41;;;;;;;;;;;;;;;16.98;64.58;101035.88;5085101;28;1304;-69
2021/03/09 10:27:12;;;;;;;;;;;;;;;16.96;64.85;101043.00;5097860;28;1216;-70
2021/03/09 10:29:38;;;;;;;;;;;;;;;16.95;65.38;101042.16;5095203;28;1906;-70
2021/03/09 10:32:12;;;;;;;;;;;;;;;16.94;65.60;101041.28;5097369;28;1232;-71
2021/03/09 10:34:43;;;;;;;;;;;;;;;16.94;65.53;101043.06;5090937;28;940;-70
2021/03/09 10:37:11;;;;;;;;;;;;;;;16.95;65.70;101042.16;5091979;28;1350;-71
2021/03/09 10:39:38;;;;;;;;;;;;;;;16.96;65.56;101038.59;5089723;28;1141;-71
2021/03/09 10:42:24;;;;;;;;;;;;;;;16.96;65.89;101029.84;5083753;28;1473;-69
2021/03/09 10:44:52;;;;;;;;;;;;;;;16.96;65.88;101028.09;5094098;28;1097;-68
2021/03/09 10:47:19;;;;;;;;;;;;;;;16.95;65.80;101026.38;5095889;28;1308;-71
2021/03/09 10:49:45;;;;;;;;;;;;;;;16.98;65.53;101028.84;5105235;28;1910;-71
2021/03/09 10:52:11;;;;;;;;;;;;;;;16.97;65.75;101027.13;5094856;28;1578;-71
2021/03/09 10:54:42;;;;;;;;;;;;;;;16.98;65.51;101025.38;5088772;28;1009;-67
2021/03/09 10:57:23;;;;;;;;;;;;;;;16.99;65.66;101020.06;5095279;28;1304;-70
2021/03/09 10:59:50;;;;;;;;;;;;;;;17.07;65.31;101019.69;5093930;28;1128;-72
2021/03/09 11:02:16;;;;;;;;;;;;;;;17.03;65.33;101024.22;5099052;28;1204;-71
2021/03/09 11:04:42;;;;;;;;;;;;;;;17.00;64.84;101023.50;5089017;28;1599;-70
2021/03/09 11:07:09;;;;;;;;;;;;;;;17.05;64.53;101027.66;5092535;28;1185;-69
2021/03/09 11:09:37;;;;;;;;;;;;;;;17.06;64.93;101020.59;5105754;28;1926;-69
2021/03/09 11:12:03;;;;;;;;;;;;;;;17.09;65.99;101025.72;5096009;28;1240;-72
2021/03/09 11:14:29;;;;;;;;;;;;;;;17.07;67.34;101031.06;5099479;28;1325;-73
2021/03/09 11:16:55;;;;;;;;;;;;;;;17.02;68.33;101025.19;5090582;28;1354;-71
2021/03/09 11:19:22;;;;;;;;;;;;;;;17.02;68.86;101029.56;5105128;28;1228;-72
2021/03/09 11:21:48;;;;;;;;;;;;;;;17.00;68.98;101021.72;5096100;28;1252;-71
2021/03/09 11:24:14;;;;;;;;;;;;;;;17.00;69.20;101021.72;5102532;28;1150;-69
2021/03/09 11:26:41;;;;;;;;;;;;;;;17.01;69.32;101022.59;5090548;28;1212;-69
2021/03/09 11:29:07;;;;;;;;;;;;;;;17.00;69.29;101015.63;5088797;28;1939;-69
2021/03/09 11:31:34;;;;;;;;;;;;;;;16.99;69.27;101012.16;5089629;28;1256;-70
2021/03/09 11:34:00;;;;;;;;;;;;;;;17.00;69.32;101010.34;5094814;28;967;-70
2021/03/09 11:36:28;;;;;;;;;;;;;;;17.00;69.04;101008.56;5103913;28;1373;-71
2021/03/09 11:38:54;;;;;;;;;;;;;;;16.99;68.66;100999.00;5110113;28;1116;-70
2021/03/09 11:41:21;;;;;;;;;;;;;;;16.99;68.59;101008.66;5096780;28;1283;-68
2021/03/09 11:43:48;;;;;;;;;;;;;;;17.16;68.11;101000.84;5107128;28;1135;-69
2021/03/09 11:46:14;;;;;;;;;;;;;;;17.24;67.54;100994.28;5081374;28;1789;-70
2021/03/09 11:48:41;;;;;;;;;;;;;;;17.18;67.48;101001.59;5081589;28;1974;-68
2021/03/09 11:51:07;;;;;;;;;;;;;;;17.13;67.18;100998.34;5099672;28;1255;-68
2021/03/09 11:53:36;;;;;;;;;;;;;;;17.11;67.14;100997.56;5097022;28;1686;-67
2021/03/09 11:56:03;;;;;;;;;;;;;;;17.18;67.16;100993.72;5088648;28;1303;-69
2021/03/09 11:58:30;;;;;;;;;;;;;;;17.15;66.93;100991.22;5094062;28;1320;-68
2021/03/09 12:00:56;;;;;;;;;;;;;;;17.15;66.85;100985.97;5079322;28;1686;-67
2021/03/09 12:03:22;;;;;;;;;;;;;;;17.16;66.94;100985.03;5100654;28;1191;-67
2021/03/09 12:05:49;;;;;;;;;;;;;;;17.17;66.84;100982.34;5091145;28;1205;-68
2021/03/09 12:08:15;;;;;;;;;;;;;;;17.16;66.79;100974.50;5095381;28;1984;-67
2021/03/09 12:10:42;;;;;;;;;;;;;;;17.16;66.71;100985.91;5096081;28;1393;-67
2021/03/09 12:13:08;;;;;;;;;;;;;;;17.16;66.67;100983.28;5104506;28;1103;-67
2021/03/09 12:15:35;;;;;;;;;;;;;;;17.17;66.59;100973.59;5091286;28;1381;-68
2021/03/09 12:18:02;;;;;;;;;;;;;;;17.17;66.50;100965.69;5094895;28;1722;-67
2021/03/09 12:20:29;;;;;;;;;;;;;;;17.18;66.37;100970.03;5096150;28;1295;-68
2021/03/09 12:22:55;;;;;;;;;;;;;;;17.18;66.34;100964.75;5103533;28;1120;-70
2021/03/09 12:25:22;;;;;;;;;;;;;;;17.17;66.09;100965.69;5090222;28;1397;-73
2021/03/09 12:27:48;;;;;;;;;;;;;;;17.19;66.23;100959.44;5093381;28;1910;-72
2021/03/09 12:30:15;;;;;;;;;;;;;;;17.20;66.16;100957.66;5101563;28;1239;-73
2021/03/09 12:32:41;;;;;;;;;;;;;;;17.20;66.35;100960.28;5101617;28;1109;-69
2021/03/09 12:35:09;;;;;;;;;;;;;;;17.22;66.06;100953.16;5093158;28;1354;-73
2021/03/09 12:37:35;;;;;;;;;;;;;;;17.22;66.04;100942.63;5093281;28;1183;-72
2021/03/09 12:40:02;;;;;;;;;;;;;;;17.32;66.00;100941.28;5102257;28;1128;-70
2021/03/09 12:42:29;;;;;;;;;;;;;;;17.21;66.40;100944.41;5080872;28;1523;-70
2021/03/09 12:44:55;;;;;;;;;;;;;;;17.18;66.16;100941.06;5094970;28;1139;-70
2021/03/09 12:47:22;;;;;;;;;;;;;;;17.15;66.06;100935.94;5091180;28;1383;-71
2021/03/09 12:49:48;;;;;;;;;;;;;;;17.16;66.40;100935.03;5104020;28;1979;-71
2021/03/09 12:52:15;;;;;;;;;;;;;;;17.11;65.94;100913.34;5085187;28;1782;-70
2021/03/09 12:54:41;;;;;;;;;;;;;;;17.08;64.39;100910.84;5088674;28;1809;-71
2021/03/09 12:57:08;;;;;;;;;;;;;;;17.10;63.77;100903.72;5090660;28;1231;-69
2021/03/09 12:59:34;;;;;;;;;;;;;;;17.11;63.07;100932.63;5080259;28;1818;-69